sensor_id;sensor_type;location;lat;lon;timestamp;P1;durP1;ratioP1;P2;durP2;ratioP2
6751;SDS011;3413;47.680;9.166;2023-06-19T00:00:48;7.33;;;3.70;;
6751;SDS011;3413;47.680;9.166;2023-06-19T00:05:50;9.30;;;4.37;;
6751;SDS011;3413;47.680;9.166;2023-06-19T00:10:52;6.00;;;3.40;;
6751;SDS011;3413;47.680;9.166;2023-06-19T00:15:54;7.63;;;3.70;;
6751;SDS011;3413;47.680;9.166;2023-06-19T00:20:56;6.40;;;3.50;;
6751;SDS011;3413;47.680;9.166;2023-06-19T00:25:58;5.40;;;3.83;;
6751;SDS011;3413;47.680;9.166;2023-06-19T00:31:02;6.00;;;3.40;;
6751;SDS011;3413;47.680;9.166;2023-06-19T00:36:08;8.83;;;4.23;;
6751;SDS011;3413;47.680;9.166;2023-06-19T00:41:14;5.20;;;3.43;;
6751;SDS011;3413;47.680;9.166;2023-06-19T00:46:18;7.30;;;3.67;;
6751;SDS011;3413;47.680;9.166;2023-06-19T00:51:21;11.47;;;4.43;;
6751;SDS011;3413;47.680;9.166;2023-06-19T00:56:23;6.23;;;4.07;;
6751;SDS011;3413;47.680;9.166;2023-06-19T01:01:25;5.83;;;3.70;;
6751;SDS011;3413;47.680;9.166;2023-06-19T01:06:46;6.00;;;4.03;;
6751;SDS011;3413;47.680;9.166;2023-06-19T01:11:55;7.93;;;4.00;;
6751;SDS011;3413;47.680;9.166;2023-06-19T01:17:02;9.00;;;4.90;;
6751;SDS011;3413;47.680;9.166;2023-06-19T01:22:05;6.40;;;3.97;;
6751;SDS011;3413;47.680;9.166;2023-06-19T01:27:07;6.70;;;3.63;;
6751;SDS011;3413;47.680;9.166;2023-06-19T01:32:13;7.67;;;4.03;;
6751;SDS011;3413;47.680;9.166;2023-06-19T01:37:20;7.30;;;3.37;;
6751;SDS011;3413;47.680;9.166;2023-06-19T01:42:25;6.63;;;3.80;;
6751;SDS011;3413;47.680;9.166;2023-06-19T01:47:28;7.33;;;3.80;;
6751;SDS011;3413;47.680;9.166;2023-06-19T01:52:30;8.40;;;3.93;;
6751;SDS011;3413;47.680;9.166;2023-06-19T01:57:32;8.80;;;4.60;;
6751;SDS011;3413;47.680;9.166;2023-06-19T02:02:34;6.67;;;4.00;;
6751;SDS011;3413;47.680;9.166;2023-06-19T02:07:38;9.40;;;4.80;;
6751;SDS011;3413;47.680;9.166;2023-06-19T02:12:41;10.57;;;4.60;;
6751;SDS011;3413;47.680;9.166;2023-06-19T02:17:42;9.17;;;4.13;;
6751;SDS011;3413;47.680;9.166;2023-06-19T02:22:44;6.87;;;4.10;;
6751;SDS011;3413;47.680;9.166;2023-06-19T02:27:46;12.30;;;4.63;;
6751;SDS011;3413;47.680;9.166;2023-06-19T02:32:49;8.13;;;4.33;;
6751;SDS011;3413;47.680;9.166;2023-06-19T02:37:51;7.33;;;4.23;;
6751;SDS011;3413;47.680;9.166;2023-06-19T02:42:54;9.03;;;4.30;;
6751;SDS011;3413;47.680;9.166;2023-06-19T02:47:56;9.57;;;4.23;;
6751;SDS011;3413;47.680;9.166;2023-06-19T02:52:58;12.97;;;5.07;;
6751;SDS011;3413;47.680;9.166;2023-06-19T02:58:00;8.07;;;4.10;;
6751;SDS011;3413;47.680;9.166;2023-06-19T03:03:02;6.83;;;3.70;;
6751;SDS011;3413;47.680;9.166;2023-06-19T03:08:05;6.20;;;3.30;;
6751;SDS011;3413;47.680;9.166;2023-06-19T03:13:08;6.07;;;3.70;;
6751;SDS011;3413;47.680;9.166;2023-06-19T03:18:10;6.30;;;3.40;;
6751;SDS011;3413;47.680;9.166;2023-06-19T03:23:13;4.60;;;3.33;;
6751;SDS011;3413;47.680;9.166;2023-06-19T03:28:15;7.43;;;3.40;;
6751;SDS011;3413;47.680;9.166;2023-06-19T03:33:17;6.57;;;3.70;;
6751;SDS011;3413;47.680;9.166;2023-06-19T03:38:20;6.47;;;3.30;;
6751;SDS011;3413;47.680;9.166;2023-06-19T03:43:23;5.87;;;3.33;;
6751;SDS011;3413;47.680;9.166;2023-06-19T03:48:25;5.50;;;3.07;;
6751;SDS011;3413;47.680;9.166;2023-06-19T03:53:27;4.30;;;3.00;;
6751;SDS011;3413;47.680;9.166;2023-06-19T03:58:29;7.50;;;3.50;;
6751;SDS011;3413;47.680;9.166;2023-06-19T04:03:31;5.77;;;2.30;;
6751;SDS011;3413;47.680;9.166;2023-06-19T04:08:33;4.93;;;2.90;;
6751;SDS011;3413;47.680;9.166;2023-06-19T04:13:35;7.17;;;3.30;;
6751;SDS011;3413;47.680;9.166;2023-06-19T04:18:37;11.17;;;3.67;;
6751;SDS011;3413;47.680;9.166;2023-06-19T04:23:39;6.63;;;3.70;;
6751;SDS011;3413;47.680;9.166;2023-06-19T04:28:41;7.17;;;4.00;;
6751;SDS011;3413;47.680;9.166;2023-06-19T04:33:46;7.70;;;3.63;;
6751;SDS011;3413;47.680;9.166;2023-06-19T04:38:48;8.17;;;4.00;;
6751;SDS011;3413;47.680;9.166;2023-06-19T04:43:53;7.90;;;3.63;;
6751;SDS011;3413;47.680;9.166;2023-06-19T04:48:55;5.07;;;2.87;;
6751;SDS011;3413;47.680;9.166;2023-06-19T04:54:01;6.90;;;3.20;;
6751;SDS011;3413;47.680;9.166;2023-06-19T04:59:03;8.17;;;3.90;;
6751;SDS011;3413;47.680;9.166;2023-06-19T05:04:05;8.67;;;4.50;;
6751;SDS011;3413;47.680;9.166;2023-06-19T05:09:07;6.33;;;3.60;;
6751;SDS011;3413;47.680;9.166;2023-06-19T05:14:09;9.13;;;3.73;;
6751;SDS011;3413;47.680;9.166;2023-06-19T05:19:12;6.00;;;3.20;;
6751;SDS011;3413;47.680;9.166;2023-06-19T05:24:14;6.43;;;3.53;;
6751;SDS011;3413;47.680;9.166;2023-06-19T05:29:16;8.67;;;4.30;;
6751;SDS011;3413;47.680;9.166;2023-06-19T05:34:18;8.60;;;4.13;;
6751;SDS011;3413;47.680;9.166;2023-06-19T05:39:20;5.83;;;3.87;;
6751;SDS011;3413;47.680;9.166;2023-06-19T05:44:22;7.27;;;3.87;;
6751;SDS011;3413;47.680;9.166;2023-06-19T05:49:24;11.63;;;4.47;;
6751;SDS011;3413;47.680;9.166;2023-06-19T05:54:26;16.30;;;4.13;;
6751;SDS011;3413;47.680;9.166;2023-06-19T05:59:28;6.90;;;4.00;;
6751;SDS011;3413;47.680;9.166;2023-06-19T06:04:30;11.10;;;4.07;;
6751;SDS011;3413;47.680;9.166;2023-06-19T06:09:32;8.90;;;4.40;;
6751;SDS011;3413;47.680;9.166;2023-06-19T06:14:36;8.97;;;4.03;;
6751;SDS011;3413;47.680;9.166;2023-06-19T06:19:38;10.63;;;3.87;;
6751;SDS011;3413;47.680;9.166;2023-06-19T06:24:40;6.13;;;3.50;;
6751;SDS011;3413;47.680;9.166;2023-06-19T06:29:43;10.93;;;3.53;;
6751;SDS011;3413;47.680;9.166;2023-06-19T06:34:44;9.33;;;3.77;;
6751;SDS011;3413;47.680;9.166;2023-06-19T06:39:46;7.50;;;3.70;;
6751;SDS011;3413;47.680;9.166;2023-06-19T06:44:48;6.23;;;4.03;;
6751;SDS011;3413;47.680;9.166;2023-06-19T06:49:50;5.60;;;3.50;;
6751;SDS011;3413;47.680;9.166;2023-06-19T06:54:52;7.67;;;3.90;;
6751;SDS011;3413;47.680;9.166;2023-06-19T06:59:54;8.30;;;3.87;;
6751;SDS011;3413;47.680;9.166;2023-06-19T07:04:56;6.60;;;4.10;;
6751;SDS011;3413;47.680;9.166;2023-06-19T07:09:58;8.73;;;3.50;;
6751;SDS011;3413;47.680;9.166;2023-06-19T07:15:00;8.00;;;3.40;;
6751;SDS011;3413;47.680;9.166;2023-06-19T07:20:02;10.37;;;3.47;;
6751;SDS011;3413;47.680;9.166;2023-06-19T07:25:05;8.93;;;3.70;;
6751;SDS011;3413;47.680;9.166;2023-06-19T07:30:08;7.87;;;3.37;;
6751;SDS011;3413;47.680;9.166;2023-06-19T07:35:15;7.10;;;3.50;;
6751;SDS011;3413;47.680;9.166;2023-06-19T07:40:18;5.70;;;3.47;;
6751;SDS011;3413;47.680;9.166;2023-06-19T07:45:19;9.40;;;3.20;;
6751;SDS011;3413;47.680;9.166;2023-06-19T07:50:24;7.47;;;3.77;;
6751;SDS011;3413;47.680;9.166;2023-06-19T07:55:28;6.80;;;3.07;;
6751;SDS011;3413;47.680;9.166;2023-06-19T08:00:30;7.63;;;3.23;;
6751;SDS011;3413;47.680;9.166;2023-06-19T08:05:32;5.70;;;2.80;;
6751;SDS011;3413;47.680;9.166;2023-06-19T08:10:34;5.13;;;3.20;;
6751;SDS011;3413;47.680;9.166;2023-06-19T08:15:36;5.33;;;2.80;;
6751;SDS011;3413;47.680;9.166;2023-06-19T08:20:38;5.90;;;3.00;;
6751;SDS011;3413;47.680;9.166;2023-06-19T08:25:40;7.43;;;3.50;;
6751;SDS011;3413;47.680;9.166;2023-06-19T08:30:42;5.60;;;3.10;;
6751;SDS011;3413;47.680;9.166;2023-06-19T08:35:46;6.83;;;3.00;;
6751;SDS011;3413;47.680;9.166;2023-06-19T08:40:49;3.80;;;2.57;;
6751;SDS011;3413;47.680;9.166;2023-06-19T08:46:03;5.30;;;2.73;;
6751;SDS011;3413;47.680;9.166;2023-06-19T08:51:11;5.33;;;2.60;;
6751;SDS011;3413;47.680;9.166;2023-06-19T08:56:13;6.00;;;3.30;;
6751;SDS011;3413;47.680;9.166;2023-06-19T09:01:18;5.73;;;3.03;;
6751;SDS011;3413;47.680;9.166;2023-06-19T09:06:21;6.80;;;3.10;;
6751;SDS011;3413;47.680;9.166;2023-06-19T09:11:23;8.13;;;3.77;;
6751;SDS011;3413;47.680;9.166;2023-06-19T09:16:26;9.37;;;3.50;;
6751;SDS011;3413;47.680;9.166;2023-06-19T09:21:38;8.40;;;3.00;;
6751;SDS011;3413;47.680;9.166;2023-06-19T09:26:40;8.43;;;3.53;;
6751;SDS011;3413;47.680;9.166;2023-06-19T09:31:42;8.40;;;3.97;;
6751;SDS011;3413;47.680;9.166;2023-06-19T09:36:45;8.47;;;4.17;;
6751;SDS011;3413;47.680;9.166;2023-06-19T09:41:48;6.50;;;3.20;;
6751;SDS011;3413;47.680;9.166;2023-06-19T09:46:54;6.03;;;3.20;;
6751;SDS011;3413;47.680;9.166;2023-06-19T09:51:57;5.63;;;2.90;;
6751;SDS011;3413;47.680;9.166;2023-06-19T09:56:59;11.80;;;3.63;;
6751;SDS011;3413;47.680;9.166;2023-06-19T10:02:04;7.20;;;3.97;;
6751;SDS011;3413;47.680;9.166;2023-06-19T10:07:14;13.17;;;3.90;;
6751;SDS011;3413;47.680;9.166;2023-06-19T10:12:18;7.77;;;3.57;;
6751;SDS011;3413;47.680;9.166;2023-06-19T10:17:20;6.13;;;3.30;;
6751;SDS011;3413;47.680;9.166;2023-06-19T10:22:22;7.30;;;3.53;;
6751;SDS011;3413;47.680;9.166;2023-06-19T10:27:24;11.93;;;5.60;;
6751;SDS011;3413;47.680;9.166;2023-06-19T10:32:27;6.87;;;3.50;;
6751;SDS011;3413;47.680;9.166;2023-06-19T10:37:32;6.13;;;3.47;;
6751;SDS011;3413;47.680;9.166;2023-06-19T10:42:36;6.17;;;3.37;;
6751;SDS011;3413;47.680;9.166;2023-06-19T10:47:39;4.97;;;3.17;;
6751;SDS011;3413;47.680;9.166;2023-06-19T10:52:45;6.40;;;3.40;;
6751;SDS011;3413;47.680;9.166;2023-06-19T10:57:49;26.33;;;3.97;;
6751;SDS011;3413;47.680;9.166;2023-06-19T11:02:51;5.13;;;3.13;;
6751;SDS011;3413;47.680;9.166;2023-06-19T11:07:58;5.87;;;3.10;;
6751;SDS011;3413;47.680;9.166;2023-06-19T11:13:00;6.87;;;3.60;;
6751;SDS011;3413;47.680;9.166;2023-06-19T11:18:02;6.40;;;3.77;;
6751;SDS011;3413;47.680;9.166;2023-06-19T11:23:04;5.50;;;3.30;;
6751;SDS011;3413;47.680;9.166;2023-06-19T11:28:16;5.20;;;3.07;;
6751;SDS011;3413;47.680;9.166;2023-06-19T11:33:23;7.50;;;3.57;;
6751;SDS011;3413;47.680;9.166;2023-06-19T11:38:26;6.37;;;3.30;;
6751;SDS011;3413;47.680;9.166;2023-06-19T11:43:30;5.77;;;3.50;;
6751;SDS011;3413;47.680;9.166;2023-06-19T11:48:36;4.30;;;2.47;;
6751;SDS011;3413;47.680;9.166;2023-06-19T11:53:38;6.00;;;2.87;;
6751;SDS011;3413;47.680;9.166;2023-06-19T11:58:40;5.03;;;3.20;;
6751;SDS011;3413;47.680;9.166;2023-06-19T12:03:42;5.30;;;2.77;;
6751;SDS011;3413;47.680;9.166;2023-06-19T12:08:45;6.23;;;3.40;;
6751;SDS011;3413;47.680;9.166;2023-06-19T12:13:47;6.93;;;3.00;;
6751;SDS011;3413;47.680;9.166;2023-06-19T12:18:49;7.70;;;3.37;;
6751;SDS011;3413;47.680;9.166;2023-06-19T12:23:51;5.63;;;3.13;;
6751;SDS011;3413;47.680;9.166;2023-06-19T12:28:53;6.83;;;3.43;;
6751;SDS011;3413;47.680;9.166;2023-06-19T12:33:55;8.00;;;3.00;;
6751;SDS011;3413;47.680;9.166;2023-06-19T12:39:00;8.17;;;3.17;;
6751;SDS011;3413;47.680;9.166;2023-06-19T12:44:04;5.80;;;3.70;;
6751;SDS011;3413;47.680;9.166;2023-06-19T12:49:06;8.10;;;3.97;;
6751;SDS011;3413;47.680;9.166;2023-06-19T12:54:08;8.57;;;3.67;;
6751;SDS011;3413;47.680;9.166;2023-06-19T12:59:10;5.70;;;2.97;;
6751;SDS011;3413;47.680;9.166;2023-06-19T13:04:12;6.63;;;3.40;;
6751;SDS011;3413;47.680;9.166;2023-06-19T13:09:15;8.67;;;3.20;;
6751;SDS011;3413;47.680;9.166;2023-06-19T13:14:17;8.73;;;3.63;;
6751;SDS011;3413;47.680;9.166;2023-06-19T13:19:19;5.57;;;2.97;;
6751;SDS011;3413;47.680;9.166;2023-06-19T13:24:21;7.00;;;3.40;;
6751;SDS011;3413;47.680;9.166;2023-06-19T13:29:23;6.10;;;3.00;;
6751;SDS011;3413;47.680;9.166;2023-06-19T13:34:25;10.23;;;3.73;;
6751;SDS011;3413;47.680;9.166;2023-06-19T13:39:27;5.00;;;2.77;;
6751;SDS011;3413;47.680;9.166;2023-06-19T13:44:30;5.20;;;2.90;;
6751;SDS011;3413;47.680;9.166;2023-06-19T13:49:32;5.30;;;3.20;;
6751;SDS011;3413;47.680;9.166;2023-06-19T13:54:34;6.20;;;3.20;;
6751;SDS011;3413;47.680;9.166;2023-06-19T13:59:37;4.33;;;2.67;;
6751;SDS011;3413;47.680;9.166;2023-06-19T14:04:39;5.50;;;3.07;;
6751;SDS011;3413;47.680;9.166;2023-06-19T14:09:41;5.37;;;2.90;;
6751;SDS011;3413;47.680;9.166;2023-06-19T14:14:43;6.90;;;3.07;;
6751;SDS011;3413;47.680;9.166;2023-06-19T14:19:45;6.87;;;3.10;;
6751;SDS011;3413;47.680;9.166;2023-06-19T14:24:50;6.57;;;2.97;;
6751;SDS011;3413;47.680;9.166;2023-06-19T14:29:54;8.40;;;3.57;;
6751;SDS011;3413;47.680;9.166;2023-06-19T14:34:57;5.10;;;2.90;;
6751;SDS011;3413;47.680;9.166;2023-06-19T14:39:59;7.83;;;2.70;;
6751;SDS011;3413;47.680;9.166;2023-06-19T14:45:01;5.00;;;2.60;;
6751;SDS011;3413;47.680;9.166;2023-06-19T14:50:03;5.80;;;2.97;;
6751;SDS011;3413;47.680;9.166;2023-06-19T14:55:05;7.50;;;2.50;;
6751;SDS011;3413;47.680;9.166;2023-06-19T15:00:08;5.93;;;2.73;;
6751;SDS011;3413;47.680;9.166;2023-06-19T15:05:11;6.10;;;2.60;;
6751;SDS011;3413;47.680;9.166;2023-06-19T15:10:13;6.47;;;3.00;;
6751;SDS011;3413;47.680;9.166;2023-06-19T15:15:15;5.87;;;2.80;;
6751;SDS011;3413;47.680;9.166;2023-06-19T15:20:17;4.50;;;3.03;;
6751;SDS011;3413;47.680;9.166;2023-06-19T15:25:21;9.17;;;4.00;;
6751;SDS011;3413;47.680;9.166;2023-06-19T15:30:23;7.77;;;4.53;;
6751;SDS011;3413;47.680;9.166;2023-06-19T15:35:26;7.40;;;3.10;;
6751;SDS011;3413;47.680;9.166;2023-06-19T15:40:28;5.93;;;3.00;;
6751;SDS011;3413;47.680;9.166;2023-06-19T15:45:30;6.50;;;3.30;;
6751;SDS011;3413;47.680;9.166;2023-06-19T15:50:32;5.97;;;3.37;;
6751;SDS011;3413;47.680;9.166;2023-06-19T15:55:34;6.70;;;3.27;;
6751;SDS011;3413;47.680;9.166;2023-06-19T16:00:37;6.13;;;3.20;;
6751;SDS011;3413;47.680;9.166;2023-06-19T16:05:40;9.93;;;3.80;;
6751;SDS011;3413;47.680;9.166;2023-06-19T16:10:58;6.93;;;3.43;;
6751;SDS011;3413;47.680;9.166;2023-06-19T16:16:00;5.73;;;2.93;;
6751;SDS011;3413;47.680;9.166;2023-06-19T16:21:02;6.40;;;3.40;;
6751;SDS011;3413;47.680;9.166;2023-06-19T16:26:04;7.13;;;3.27;;
6751;SDS011;3413;47.680;9.166;2023-06-19T16:31:06;12.63;;;3.47;;
6751;SDS011;3413;47.680;9.166;2023-06-19T16:36:10;8.93;;;3.30;;
6751;SDS011;3413;47.680;9.166;2023-06-19T16:41:12;7.07;;;3.27;;
6751;SDS011;3413;47.680;9.166;2023-06-19T16:46:15;6.30;;;2.90;;
6751;SDS011;3413;47.680;9.166;2023-06-19T16:51:17;5.67;;;2.80;;
6751;SDS011;3413;47.680;9.166;2023-06-19T16:56:19;6.03;;;3.20;;
6751;SDS011;3413;47.680;9.166;2023-06-19T17:01:21;5.30;;;2.60;;
6751;SDS011;3413;47.680;9.166;2023-06-19T17:06:23;6.53;;;3.40;;
6751;SDS011;3413;47.680;9.166;2023-06-19T17:11:25;5.67;;;2.90;;
6751;SDS011;3413;47.680;9.166;2023-06-19T17:16:28;6.07;;;3.30;;
6751;SDS011;3413;47.680;9.166;2023-06-19T17:21:30;11.93;;;3.00;;
6751;SDS011;3413;47.680;9.166;2023-06-19T17:26:33;6.83;;;3.10;;
6751;SDS011;3413;47.680;9.166;2023-06-19T17:31:35;8.50;;;3.77;;
6751;SDS011;3413;47.680;9.166;2023-06-19T17:36:39;9.60;;;3.80;;
6751;SDS011;3413;47.680;9.166;2023-06-19T17:41:41;11.23;;;3.80;;
6751;SDS011;3413;47.680;9.166;2023-06-19T17:46:43;7.80;;;3.67;;
6751;SDS011;3413;47.680;9.166;2023-06-19T17:51:45;10.40;;;3.90;;
6751;SDS011;3413;47.680;9.166;2023-06-19T17:56:47;8.70;;;3.80;;
6751;SDS011;3413;47.680;9.166;2023-06-19T18:01:50;6.40;;;2.90;;
6751;SDS011;3413;47.680;9.166;2023-06-19T18:06:51;4.20;;;2.37;;
6751;SDS011;3413;47.680;9.166;2023-06-19T18:11:54;6.90;;;1.93;;
6751;SDS011;3413;47.680;9.166;2023-06-19T18:16:56;4.07;;;1.90;;
6751;SDS011;3413;47.680;9.166;2023-06-19T18:22:02;3.07;;;1.60;;
6751;SDS011;3413;47.680;9.166;2023-06-19T18:27:04;6.00;;;1.90;;
6751;SDS011;3413;47.680;9.166;2023-06-19T18:32:07;4.30;;;2.30;;
6751;SDS011;3413;47.680;9.166;2023-06-19T18:37:09;3.50;;;1.83;;
6751;SDS011;3413;47.680;9.166;2023-06-19T18:42:11;4.63;;;2.30;;
6751;SDS011;3413;47.680;9.166;2023-06-19T18:47:13;6.47;;;2.33;;
6751;SDS011;3413;47.680;9.166;2023-06-19T18:52:15;4.23;;;2.33;;
6751;SDS011;3413;47.680;9.166;2023-06-19T18:57:17;4.57;;;2.70;;
6751;SDS011;3413;47.680;9.166;2023-06-19T19:02:19;6.67;;;3.57;;
6751;SDS011;3413;47.680;9.166;2023-06-19T19:07:22;5.23;;;2.67;;
6751;SDS011;3413;47.680;9.166;2023-06-19T19:12:24;7.17;;;3.60;;
6751;SDS011;3413;47.680;9.166;2023-06-19T19:17:26;3.00;;;1.87;;
6751;SDS011;3413;47.680;9.166;2023-06-19T19:22:28;3.40;;;1.97;;
6751;SDS011;3413;47.680;9.166;2023-06-19T19:27:29;1.90;;;1.10;;
6751;SDS011;3413;47.680;9.166;2023-06-19T19:32:35;3.00;;;1.47;;
6751;SDS011;3413;47.680;9.166;2023-06-19T19:37:37;5.00;;;1.73;;
6751;SDS011;3413;47.680;9.166;2023-06-19T19:42:39;6.60;;;1.50;;
6751;SDS011;3413;47.680;9.166;2023-06-19T19:47:41;2.40;;;1.37;;
6751;SDS011;3413;47.680;9.166;2023-06-19T19:52:43;3.43;;;1.90;;
6751;SDS011;3413;47.680;9.166;2023-06-19T19:57:45;2.47;;;1.37;;
6751;SDS011;3413;47.680;9.166;2023-06-19T20:02:47;3.10;;;1.60;;
6751;SDS011;3413;47.680;9.166;2023-06-19T20:07:49;5.30;;;2.40;;
6751;SDS011;3413;47.680;9.166;2023-06-19T20:12:51;3.07;;;1.80;;
6751;SDS011;3413;47.680;9.166;2023-06-19T20:17:53;5.47;;;2.10;;
6751;SDS011;3413;47.680;9.166;2023-06-19T20:22:55;3.60;;;2.07;;
6751;SDS011;3413;47.680;9.166;2023-06-19T20:27:59;3.30;;;2.07;;
6751;SDS011;3413;47.680;9.166;2023-06-19T20:33:09;3.63;;;2.27;;
6751;SDS011;3413;47.680;9.166;2023-06-19T20:38:11;3.60;;;1.93;;
6751;SDS011;3413;47.680;9.166;2023-06-19T20:43:13;3.47;;;1.80;;
6751;SDS011;3413;47.680;9.166;2023-06-19T20:48:15;3.00;;;1.60;;
6751;SDS011;3413;47.680;9.166;2023-06-19T20:53:16;5.47;;;2.33;;
6751;SDS011;3413;47.680;9.166;2023-06-19T20:58:18;5.80;;;2.27;;
6751;SDS011;3413;47.680;9.166;2023-06-19T21:03:22;3.23;;;2.23;;
6751;SDS011;3413;47.680;9.166;2023-06-19T21:08:28;3.30;;;1.97;;
6751;SDS011;3413;47.680;9.166;2023-06-19T21:13:34;3.40;;;2.00;;
6751;SDS011;3413;47.680;9.166;2023-06-19T21:18:36;4.80;;;2.10;;
6751;SDS011;3413;47.680;9.166;2023-06-19T21:23:38;5.03;;;2.00;;
6751;SDS011;3413;47.680;9.166;2023-06-19T21:28:40;4.37;;;1.70;;
6751;SDS011;3413;47.680;9.166;2023-06-19T21:33:42;4.20;;;1.97;;
6751;SDS011;3413;47.680;9.166;2023-06-19T21:38:44;3.70;;;1.83;;
6751;SDS011;3413;47.680;9.166;2023-06-19T21:43:46;4.77;;;1.90;;
6751;SDS011;3413;47.680;9.166;2023-06-19T21:48:48;8.23;;;1.90;;
6751;SDS011;3413;47.680;9.166;2023-06-19T21:53:50;4.97;;;2.17;;
6751;SDS011;3413;47.680;9.166;2023-06-19T21:58:52;5.63;;;2.20;;
6751;SDS011;3413;47.680;9.166;2023-06-19T22:03:54;4.00;;;1.97;;
6751;SDS011;3413;47.680;9.166;2023-06-19T22:08:57;5.10;;;1.90;;
6751;SDS011;3413;47.680;9.166;2023-06-19T22:14:01;5.77;;;2.23;;
6751;SDS011;3413;47.680;9.166;2023-06-19T22:19:03;6.40;;;1.80;;
6751;SDS011;3413;47.680;9.166;2023-06-19T22:24:05;5.20;;;1.90;;
6751;SDS011;3413;47.680;9.166;2023-06-19T22:29:07;5.60;;;2.87;;
6751;SDS011;3413;47.680;9.166;2023-06-19T22:34:12;4.90;;;2.70;;
6751;SDS011;3413;47.680;9.166;2023-06-19T22:39:14;6.47;;;2.17;;
6751;SDS011;3413;47.680;9.166;2023-06-19T22:44:16;4.90;;;2.10;;
6751;SDS011;3413;47.680;9.166;2023-06-19T22:49:19;8.10;;;2.20;;
6751;SDS011;3413;47.680;9.166;2023-06-19T22:54:21;3.90;;;2.00;;
6751;SDS011;3413;47.680;9.166;2023-06-19T22:59:23;5.80;;;2.27;;
6751;SDS011;3413;47.680;9.166;2023-06-19T23:04:25;6.03;;;1.90;;
6751;SDS011;3413;47.680;9.166;2023-06-19T23:09:27;3.50;;;1.90;;
6751;SDS011;3413;47.680;9.166;2023-06-19T23:14:32;6.70;;;2.10;;
6751;SDS011;3413;47.680;9.166;2023-06-19T23:19:34;4.17;;;2.00;;
6751;SDS011;3413;47.680;9.166;2023-06-19T23:24:36;3.00;;;1.90;;
6751;SDS011;3413;47.680;9.166;2023-06-19T23:29:41;4.60;;;2.27;;
6751;SDS011;3413;47.680;9.166;2023-06-19T23:34:43;6.07;;;2.10;;
6751;SDS011;3413;47.680;9.166;2023-06-19T23:39:46;3.80;;;2.47;;
6751;SDS011;3413;47.680;9.166;2023-06-19T23:44:48;5.83;;;2.37;;
6751;SDS011;3413;47.680;9.166;2023-06-19T23:49:50;4.33;;;2.50;;
6751;SDS011;3413;47.680;9.166;2023-06-19T23:54:52;3.90;;;2.27;;
6751;SDS011;3413;47.680;9.166;2023-06-19T23:59:54;5.60;;;2.30;;
